Time;durP1;ratioP1;P1;durP2;ratioP2;P2;SDS_P1;SDS_P2;PMS_P1;PMS_P2;Temp;Humidity;BMP_temperature;BMP_pressure;BME280_temperature;BME280_humidity;BME280_pressure;Samples;Min_cycle;Max_cycle;Signal;HPM_P1;HPM_P2
2023/03/02 00:00:15;;;;;;;10.47;8.90;;;;;;;;;;517707;28;1584;-68
2023/03/02 00:00:32;;;;;;;10.05;8.93;;;;;;;;;;518878;28;1419;-70
2023/03/02 00:00:47;;;;;;;10.55;8.90;;;;;;;;;;519435;28;1209;-70
2023/03/02 00:01:08;;;;;;;11.57;9.30;;;;;;;;;;518548;28;1369;-70
2023/03/02 00:01:30;;;;;;;11.35;9.25;;;;;;;;;;520815;28;1275;-70
2023/03/02 00:02:03;;;;;;;10.63;9.05;;;;;;;;;;518249;28;1443;-70
2023/03/02 00:02:22;;;;;;;10.85;9.10;;;;;;;;;;516633;28;1366;-70
2023/03/02 00:02:39;;;;;;;10.43;9.15;;;;;;;;;;519069;28;1516;-70
2023/03/02 00:02:54;;;;;;;10.35;9.20;;;;;;;;;;517778;28;1290;-70
2023/03/02 00:03:11;;;;;;;10.67;9.33;;;;;;;;;;518266;28;1203;-69
2023/03/02 00:03:27;;;;;;;10.90;9.40;;;;;;;;;;519274;28;1714;-70
2023/03/02 00:03:43;;;;;;;10.95;8.95;;;;;;;;;;518446;28;1434;-70
2023/03/02 00:04:01;;;;;;;10.50;8.73;;;;;;;;;;519807;28;1295;-70
2023/03/02 00:04:19;;;;;;;10.48;9.07;;;;;;;;;;517672;28;1339;-70
2023/03/02 00:04:38;;;;;;;10.38;9.10;;;;;;;;;;520109;28;1278;-70
2023/03/02 00:04:56;;;;;;;10.27;9.00;;;;;;;;;;518354;28;1272;-70
2023/03/02 00:05:13;;;;;;;10.30;8.70;;;;;;;;;;514500;28;1406;-70
2023/03/02 00:05:29;;;;;;;10.55;8.60;;;;;;;;;;516732;28;1350;-70
2023/03/02 00:05:46;;;;;;;10.52;8.70;;;;;;;;;;517542;28;1402;-70
2023/03/02 00:06:02;;;;;;;10.60;8.98;;;;;;;;;;514981;28;1494;-69
2023/03/02 00:06:18;;;;;;;10.57;9.15;;;;;;;;;;516408;28;1265;-70
2023/03/02 00:06:35;;;;;;;10.52;8.98;;;;;;;;;;517223;28;1229;-70
2023/03/02 00:06:54;;;;;;;10.65;8.90;;;;;;;;;;520845;28;1424;-69
2023/03/02 00:07:20;;;;;;;10.48;8.92;;;;;;;;;;353848;28;10000583;-70
2023/03/02 00:07:40;;;;;;;9.59;8.22;;;;;;;;;;3;10001215;10001997;-70
2023/03/02 00:08:04;;;;;;;10.51;8.89;;;;;;;;;;438843;28;10000662;-70
2023/03/02 00:08:19;;;;;;;11.13;9.20;;;;;;;;;;518576;28;1991;-70
2023/03/02 00:08:35;;;;;;;10.63;9.10;;;;;;;;;;516823;28;1241;-70
2023/03/02 00:08:51;;;;;;;11.63;9.23;;;;;;;;;;517693;28;1289;-70
2023/03/02 00:09:07;;;;;;;11.43;9.33;;;;;;;;;;516681;28;1405;-70
2023/03/02 00:09:22;;;;;;;10.52;9.40;;;;;;;;;;515375;28;1366;-70
2023/03/02 00:09:38;;;;;;;10.80;9.40;;;;;;;;;;512817;28;1284;-70
2023/03/02 00:09:54;;;;;;;11.10;9.32;;;;;;;;;;515415;28;1308;-69
2023/03/02 00:10:10;;;;;;;10.93;9.68;;;;;;;;;;514599;28;1398;-70
2023/03/02 00:10:25;;;;;;;11.07;9.38;;;;;;;;;;516267;28;1410;-70
2023/03/02 00:10:40;;;;;;;10.80;9.00;;;;;;;;;;516689;28;1207;-70
2023/03/02 00:10:56;;;;;;;10.20;9.10;;;;;;;;;;515917;28;1914;-70
2023/03/02 00:11:14;;;;;;;10.25;9.07;;;;;;;;;;516400;28;1166;-70
2023/03/02 00:11:31;;;;;;;10.63;9.10;;;;;;;;;;515836;28;1559;-70
2023/03/02 00:11:47;;;;;;;10.55;8.98;;;;;;;;;;518088;28;1365;-70
2023/03/02 00:12:03;;;;;;;10.60;9.20;;;;;;;;;;516880;28;1227;-70
2023/03/02 00:12:19;;;;;;;10.77;9.20;;;;;;;;;;517352;28;1413;-70
2023/03/02 00:12:35;;;;;;;10.80;9.20;;;;;;;;;;518800;28;1523;-69
2023/03/02 00:12:50;;;;;;;10.75;9.30;;;;;;;;;;517710;28;1324;-70
2023/03/02 00:13:06;;;;;;;10.55;8.98;;;;;;;;;;516684;28;1353;-70
2023/03/02 00:13:21;;;;;;;11.27;9.13;;;;;;;;;;516651;28;1231;-70
2023/03/02 00:13:37;;;;;;;11.30;9.48;;;;;;;;;;517046;28;1410;-70
2023/03/02 00:13:52;;;;;;;10.67;9.27;;;;;;;;;;517711;28;1158;-70
2023/03/02 00:14:08;;;;;;;11.03;9.13;;;;;;;;;;516479;28;1523;-70
2023/03/02 00:14:24;;;;;;;10.60;8.87;;;;;;;;;;514429;28;1168;-70
2023/03/02 00:14:39;;;;;;;11.07;8.90;;;;;;;;;;517607;28;1396;-70
2023/03/02 00:14:55;;;;;;;12.10;9.27;;;;;;;;;;518752;28;1200;-70
2023/03/02 00:15:10;;;;;;;11.63;9.10;;;;;;;;;;519543;28;1493;-70
2023/03/02 00:15:26;;;;;;;11.02;9.13;;;;;;;;;;517214;28;1224;-70
2023/03/02 00:15:41;;;;;;;10.47;9.37;;;;;;;;;;520045;28;1304;-70
2023/03/02 00:15:56;;;;;;;10.95;9.45;;;;;;;;;;517558;28;1189;-70
2023/03/02 00:16:12;;;;;;;11.73;9.70;;;;;;;;;;517301;28;1204;-70
2023/03/02 00:16:30;;;;;;;11.63;9.60;;;;;;;;;;519848;28;1367;-70
2023/03/02 00:16:45;;;;;;;10.35;9.07;;;;;;;;;;518012;28;1385;-70
2023/03/02 00:17:01;;;;;;;10.73;9.20;;;;;;;;;;515659;28;1335;-70
2023/03/02 00:17:17;;;;;;;11.50;9.38;;;;;;;;;;518669;28;1292;-70
2023/03/02 00:17:32;;;;;;;10.70;9.13;;;;;;;;;;519791;28;1589;-70
2023/03/02 00:17:47;;;;;;;10.23;9.10;;;;;;;;;;521456;28;1312;-70
2023/03/02 00:18:03;;;;;;;10.50;9.27;;;;;;;;;;515723;28;1085;-70
2023/03/02 00:18:18;;;;;;;10.38;9.27;;;;;;;;;;518067;28;1452;-70
2023/03/02 00:18:33;;;;;;;10.50;9.17;;;;;;;;;;519254;28;1381;-70
2023/03/02 00:18:48;;;;;;;10.97;9.10;;;;;;;;;;517550;28;1280;-70
2023/03/02 00:19:04;;;;;;;10.53;9.03;;;;;;;;;;520738;28;1223;-70
2023/03/02 00:19:20;;;;;;;10.50;9.15;;;;;;;;;;520059;28;1851;-70
2023/03/02 00:19:36;;;;;;;10.57;9.20;;;;;;;;;;523262;28;1403;-70
2023/03/02 00:19:51;;;;;;;10.32;9.07;;;;;;;;;;522041;28;1525;-70
2023/03/02 00:20:09;;;;;;;11.23;8.80;;;;;;;;;;521142;28;1082;-70
2023/03/02 00:20:24;;;;;;;11.93;9.02;;;;;;;;;;521488;28;1129;-70
2023/03/02 00:20:39;;;;;;;12.77;9.70;;;;;;;;;;519333;28;1334;-70
2023/03/02 00:20:55;;;;;;;12.70;9.63;;;;;;;;;;517268;28;1550;-69
2023/03/02 00:21:10;;;;;;;11.13;8.97;;;;;;;;;;517754;28;1330;-70
2023/03/02 00:21:25;;;;;;;11.37;8.83;;;;;;;;;;517443;28;1316;-70
2023/03/02 00:21:41;;;;;;;11.35;9.13;;;;;;;;;;517392;28;1268;-70
2023/03/02 00:21:56;;;;;;;11.30;9.23;;;;;;;;;;517107;28;1259;-70
2023/03/02 00:22:11;;;;;;;11.90;9.20;;;;;;;;;;518952;28;1354;-70
2023/03/02 00:22:27;;;;;;;11.20;9.00;;;;;;;;;;516955;28;1323;-70
2023/03/02 00:22:44;;;;;;;11.20;9.10;;;;;;;;;;517343;28;1190;-70
2023/03/02 00:23:00;;;;;;;11.88;9.60;;;;;;;;;;516000;28;1636;-70
2023/03/02 00:23:15;;;;;;;11.17;9.27;;;;;;;;;;515746;28;1313;-70
2023/03/02 00:23:30;;;;;;;11.20;8.98;;;;;;;;;;517109;28;1434;-70
2023/03/02 00:23:46;;;;;;;11.87;9.10;;;;;;;;;;519543;28;1436;-70
2023/03/02 00:24:01;;;;;;;11.40;9.00;;;;;;;;;;519964;28;1142;-70
2023/03/02 00:24:16;;;;;;;11.18;9.30;;;;;;;;;;519659;28;1337;-70
2023/03/02 00:24:32;;;;;;;10.97;9.30;;;;;;;;;;518766;28;1326;-70
2023/03/02 00:24:47;;;;;;;10.63;8.70;;;;;;;;;;516672;28;1246;-70
2023/03/02 00:25:03;;;;;;;10.40;8.60;;;;;;;;;;515190;28;1482;-70
2023/03/02 00:25:19;;;;;;;10.50;9.13;;;;;;;;;;517657;28;1239;-70
2023/03/02 00:25:35;;;;;;;10.75;9.05;;;;;;;;;;515813;28;1388;-70
2023/03/02 00:25:50;;;;;;;10.10;8.93;;;;;;;;;;515054;28;1152;-70
2023/03/02 00:26:06;;;;;;;9.98;8.95;;;;;;;;;;513329;28;1102;-70
2023/03/02 00:26:21;;;;;;;11.03;8.93;;;;;;;;;;513710;28;1193;-70
2023/03/02 00:26:37;;;;;;;11.75;9.23;;;;;;;;;;516387;28;1527;-70
2023/03/02 00:26:52;;;;;;;11.33;9.23;;;;;;;;;;515111;28;1291;-70
2023/03/02 00:27:07;;;;;;;11.02;9.18;;;;;;;;;;514478;28;1434;-70
2023/03/02 00:27:23;;;;;;;11.73;9.23;;;;;;;;;;515454;28;1183;-70
2023/03/02 00:27:39;;;;;;;11.30;9.00;;;;;;;;;;515969;28;1264;-70
2023/03/02 00:27:54;;;;;;;10.60;9.10;;;;;;;;;;518720;28;1365;-70
2023/03/02 00:28:10;;;;;;;11.00;9.03;;;;;;;;;;520645;28;1230;-70
2023/03/02 00:28:25;;;;;;;11.43;9.40;;;;;;;;;;521925;28;1219;-70
2023/03/02 00:28:40;;;;;;;12.37;9.60;;;;;;;;;;519971;28;1228;-70
2023/03/02 00:28:56;;;;;;;12.17;9.50;;;;;;;;;;518982;28;1270;-70
2023/03/02 00:29:11;;;;;;;11.20;9.30;;;;;;;;;;519319;28;1393;-70
2023/03/02 00:29:29;;;;;;;10.47;8.80;;;;;;;;;;517762;28;1390;-70
2023/03/02 00:29:44;;;;;;;10.80;8.93;;;;;;;;;;514130;28;1256;-70
2023/03/02 00:29:59;;;;;;;11.37;9.13;;;;;;;;;;518303;28;1341;-70
2023/03/02 00:30:15;;;;;;;11.20;9.27;;;;;;;;;;517921;28;1252;-70
2023/03/02 00:30:31;;;;;;;11.82;9.45;;;;;;;;;;517388;28;1288;-70
2023/03/02 00:30:46;;;;;;;11.27;9.27;;;;;;;;;;518003;28;1553;-70
2023/03/02 00:31:04;;;;;;;10.63;8.70;;;;;;;;;;519690;28;1902;-70
2023/03/02 00:31:20;;;;;;;11.63;8.98;;;;;;;;;;516574;28;1603;-70
2023/03/02 00:31:36;;;;;;;11.57;9.40;;;;;;;;;;519340;28;1330;-71
2023/03/02 00:31:52;;;;;;;12.02;9.52;;;;;;;;;;516467;28;1412;-70
2023/03/02 00:32:07;;;;;;;11.60;9.53;;;;;;;;;;516700;28;1232;-70
2023/03/02 00:32:23;;;;;;;10.88;9.45;;;;;;;;;;517433;28;1197;-70
2023/03/02 00:32:39;;;;;;;11.50;9.43;;;;;;;;;;515959;28;1398;-70
2023/03/02 00:32:54;;;;;;;11.18;9.07;;;;;;;;;;515080;28;1215;-70
2023/03/02 00:33:09;;;;;;;10.07;8.83;;;;;;;;;;514741;28;1158;-70
2023/03/02 00:33:25;;;;;;;10.27;9.15;;;;;;;;;;517351;28;1300;-70
2023/03/02 00:33:40;;;;;;;11.03;9.40;;;;;;;;;;518364;28;1336;-70
2023/03/02 00:33:55;;;;;;;11.23;9.43;;;;;;;;;;518099;28;1454;-70
2023/03/02 00:34:11;;;;;;;11.25;9.50;;;;;;;;;;516855;28;1170;-70
2023/03/02 00:34:26;;;;;;;11.17;9.20;;;;;;;;;;516629;28;1263;-70
2023/03/02 00:34:41;;;;;;;11.27;9.17;;;;;;;;;;515543;28;1179;-70
2023/03/02 00:34:57;;;;;;;11.35;9.55;;;;;;;;;;519675;28;1205;-70
2023/03/02 00:35:12;;;;;;;10.67;9.30;;;;;;;;;;516836;28;1239;-70
2023/03/02 00:35:27;;;;;;;10.73;9.23;;;;;;;;;;516939;28;1240;-70
2023/03/02 00:35:43;;;;;;;11.07;9.30;;;;;;;;;;517145;28;1589;-70
2023/03/02 00:35:58;;;;;;;11.37;9.40;;;;;;;;;;517384;28;1126;-70
2023/03/02 00:36:17;;;;;;;10.93;9.27;;;;;;;;;;515579;28;1322;-70
2023/03/02 00:36:33;;;;;;;10.30;8.98;;;;;;;;;;516658;28;1542;-70
2023/03/02 00:36:48;;;;;;;11.20;9.37;;;;;;;;;;519431;28;1322;-71
2023/03/02 00:37:03;;;;;;;11.80;9.13;;;;;;;;;;521312;28;1358;-70
2023/03/02 00:37:19;;;;;;;11.37;9.00;;;;;;;;;;521901;28;1221;-70
2023/03/02 00:37:35;;;;;;;11.05;9.43;;;;;;;;;;520424;28;1369;-70
2023/03/02 00:37:50;;;;;;;10.68;9.35;;;;;;;;;;518915;28;1362;-70
2023/03/02 00:38:07;;;;;;;10.40;9.23;;;;;;;;;;517510;28;1199;-70
2023/03/02 00:38:22;;;;;;;10.63;8.95;;;;;;;;;;517251;28;1271;-70
2023/03/02 00:38:37;;;;;;;11.35;9.05;;;;;;;;;;515379;28;1243;-70
2023/03/02 00:38:53;;;;;;;10.83;9.00;;;;;;;;;;519641;28;1340;-70
2023/03/02 00:39:08;;;;;;;10.45;8.80;;;;;;;;;;519556;28;1239;-70
2023/03/02 00:39:23;;;;;;;10.90;9.17;;;;;;;;;;518056;28;1564;-70
2023/03/02 00:39:39;;;;;;;10.90;9.33;;;;;;;;;;514917;28;1397;-70
2023/03/02 00:39:54;;;;;;;11.87;9.47;;;;;;;;;;520006;28;1379;-70
2023/03/02 00:40:10;;;;;;;11.38;9.05;;;;;;;;;;520158;28;1388;-70
2023/03/02 00:40:25;;;;;;;10.48;9.05;;;;;;;;;;516358;28;1490;-70
2023/03/02 00:40:45;;;;;;;11.80;9.10;;;;;;;;;;515113;28;1478;-70
2023/03/02 00:41:00;;;;;;;11.15;9.30;;;;;;;;;;514420;28;1379;-70
2023/03/02 00:41:15;;;;;;;11.53;9.50;;;;;;;;;;516967;28;1163;-70
2023/03/02 00:41:31;;;;;;;11.63;9.50;;;;;;;;;;519816;28;1264;-70
2023/03/02 00:41:47;;;;;;;11.00;9.50;;;;;;;;;;515772;28;1414;-71
2023/03/02 00:42:02;;;;;;;11.57;9.77;;;;;;;;;;519254;28;1267;-70
2023/03/02 00:42:18;;;;;;;12.13;9.57;;;;;;;;;;518556;28;1174;-70
2023/03/02 00:42:37;;;;;;;11.32;9.45;;;;;;;;;;519553;28;1373;-70
2023/03/02 00:42:53;;;;;;;10.77;9.68;;;;;;;;;;517363;28;1311;-70
2023/03/02 00:43:08;;;;;;;11.43;9.97;;;;;;;;;;517890;28;1262;-70
2023/03/02 00:43:26;;;;;;;11.17;9.70;;;;;;;;;;519411;28;1246;-70
2023/03/02 00:43:42;;;;;;;11.20;9.35;;;;;;;;;;521515;28;1437;-70
2023/03/02 00:43:57;;;;;;;12.27;9.63;;;;;;;;;;518344;28;1468;-70
2023/03/02 00:44:16;;;;;;;12.23;9.60;;;;;;;;;;519333;28;1314;-70
2023/03/02 00:44:31;;;;;;;10.57;9.48;;;;;;;;;;517098;28;1479;-70
2023/03/02 00:44:47;;;;;;;11.68;9.50;;;;;;;;;;516476;28;1071;-70
2023/03/02 00:45:04;;;;;;;11.77;9.40;;;;;;;;;;516067;28;1308;-70
2023/03/02 00:45:20;;;;;;;10.68;9.27;;;;;;;;;;515607;28;1280;-70
2023/03/02 00:45:35;;;;;;;11.10;9.30;;;;;;;;;;517459;28;1212;-70
2023/03/02 00:45:50;;;;;;;11.97;9.37;;;;;;;;;;519042;28;1336;-70
2023/03/02 00:46:13;;;;;;;12.13;9.55;;;;;;;;;;517092;28;1240;-70
2023/03/02 00:46:28;;;;;;;10.65;9.55;;;;;;;;;;516033;28;1398;-70
2023/03/02 00:46:44;;;;;;;10.57;9.27;;;;;;;;;;515799;28;1503;-70
2023/03/02 00:46:59;;;;;;;10.43;9.00;;;;;;;;;;515594;28;1424;-70
2023/03/02 00:47:15;;;;;;;10.77;9.23;;;;;;;;;;515107;28;1317;-70
2023/03/02 00:47:34;;;;;;;11.20;9.40;;;;;;;;;;516566;28;1198;-71
2023/03/02 00:47:49;;;;;;;11.45;9.65;;;;;;;;;;517112;28;1129;-70
2023/03/02 00:48:04;;;;;;;11.67;9.57;;;;;;;;;;517383;28;1249;-70
2023/03/02 00:48:20;;;;;;;11.27;9.13;;;;;;;;;;517982;28;1127;-70
2023/03/02 00:48:35;;;;;;;10.80;8.90;;;;;;;;;;517966;28;1251;-70
2023/03/02 00:48:51;;;;;;;11.32;9.15;;;;;;;;;;518023;28;1286;-70
2023/03/02 00:49:06;;;;;;;11.30;9.27;;;;;;;;;;517517;28;1291;-70
2023/03/02 00:49:22;;;;;;;10.20;8.97;;;;;;;;;;519104;28;1499;-70
2023/03/02 00:49:37;;;;;;;11.43;9.10;;;;;;;;;;515789;28;1440;-70
2023/03/02 00:49:52;;;;;;;12.13;9.40;;;;;;;;;;515447;28;1513;-70
2023/03/02 00:50:09;;;;;;;10.93;9.27;;;;;;;;;;514351;28;1323;-70
2023/03/02 00:50:24;;;;;;;10.68;9.02;;;;;;;;;;515718;28;1285;-70
2023/03/02 00:50:40;;;;;;;10.95;9.23;;;;;;;;;;515865;28;1275;-70
2023/03/02 00:50:55;;;;;;;11.68;9.63;;;;;;;;;;515956;28;1918;-70
2023/03/02 00:51:11;;;;;;;12.23;9.57;;;;;;;;;;518212;28;1469;-70
2023/03/02 00:51:27;;;;;;;12.45;9.70;;;;;;;;;;515116;28;1244;-70
2023/03/02 00:51:42;;;;;;;12.10;10.00;;;;;;;;;;514638;28;1285;-70
2023/03/02 00:51:57;;;;;;;11.23;9.60;;;;;;;;;;517510;28;1470;-70
2023/03/02 00:52:13;;;;;;;11.40;9.57;;;;;;;;;;518462;28;1481;-71
2023/03/02 00:52:32;;;;;;;12.13;9.98;;;;;;;;;;518396;28;1235;-71
2023/03/02 00:52:47;;;;;;;12.30;9.80;;;;;;;;;;517176;28;1442;-70
2023/03/02 00:53:03;;;;;;;12.18;9.73;;;;;;;;;;519646;28;1343;-70
2023/03/02 00:53:19;;;;;;;11.13;9.57;;;;;;;;;;518606;28;1358;-70
2023/03/02 00:53:35;;;;;;;10.52;9.27;;;;;;;;;;516598;28;1420;-70
2023/03/02 00:53:51;;;;;;;10.50;9.27;;;;;;;;;;518154;28;1472;-70
2023/03/02 00:54:06;;;;;;;11.80;9.45;;;;;;;;;;520366;28;1409;-71
2023/03/02 00:54:21;;;;;;;12.33;9.30;;;;;;;;;;519082;28;1287;-70
2023/03/02 00:54:36;;;;;;;11.63;9.10;;;;;;;;;;518262;28;1292;-69
2023/03/02 00:54:52;;;;;;;10.50;8.95;;;;;;;;;;521954;28;1295;-68
2023/03/02 00:55:08;;;;;;;10.17;8.93;;;;;;;;;;520143;28;1184;-68
2023/03/02 00:55:23;;;;;;;11.52;9.60;;;;;;;;;;520389;28;1270;-68
2023/03/02 00:55:38;;;;;;;11.23;9.50;;;;;;;;;;520953;28;1317;-68
2023/03/02 00:55:54;;;;;;;11.73;9.30;;;;;;;;;;520601;28;1247;-68
2023/03/02 00:56:09;;;;;;;12.30;9.63;;;;;;;;;;518921;28;1260;-68
2023/03/02 00:56:25;;;;;;;11.73;9.55;;;;;;;;;;518459;28;1243;-68
2023/03/02 00:56:41;;;;;;;12.17;9.90;;;;;;;;;;519153;28;1193;-68
2023/03/02 00:56:57;;;;;;;12.10;9.82;;;;;;;;;;518984;28;1305;-68
2023/03/02 00:57:12;;;;;;;11.43;9.43;;;;;;;;;;517962;28;1421;-68
2023/03/02 00:57:27;;;;;;;10.73;9.32;;;;;;;;;;519106;28;1375;-68
2023/03/02 00:57:53;;;;;;;10.43;9.13;;;;;;;;;;521046;28;1367;-68
2023/03/02 00:58:09;;;;;;;11.30;9.52;;;;;;;;;;520114;28;1514;-68
2023/03/02 00:58:25;;;;;;;11.83;9.93;;;;;;;;;;519915;28;1433;-68
2023/03/02 00:58:41;;;;;;;11.65;9.90;;;;;;;;;;520127;28;1295;-68
2023/03/02 00:58:56;;;;;;;11.90;9.87;;;;;;;;;;521005;28;1263;-68
2023/03/02 00:59:24;;;;;;;12.32;9.85;;;;;;;;;;521188;28;1307;-70
2023/03/02 00:59:40;;;;;;;11.20;9.52;;;;;;;;;;518936;28;1607;-69
2023/03/02 00:59:55;;;;;;;10.50;9.40;;;;;;;;;;519661;28;1527;-68
2023/03/02 01:00:11;;;;;;;11.30;9.60;;;;;;;;;;518632;28;1209;-68
2023/03/02 01:00:29;;;;;;;12.30;9.60;;;;;;;;;;517601;28;1187;-68
2023/03/02 01:00:45;;;;;;;12.40;9.50;;;;;;;;;;517727;28;1034;-68
2023/03/02 01:01:06;;;;;;;11.40;9.75;;;;;;;;;;516784;28;1351;-68
2023/03/02 01:01:21;;;;;;;11.95;9.68;;;;;;;;;;515342;28;1500;-68
2023/03/02 01:01:36;;;;;;;12.10;9.60;;;;;;;;;;513381;28;1203;-68
2023/03/02 01:01:57;;;;;;;10.93;9.30;;;;;;;;;;516593;28;1312;-68
2023/03/02 01:02:13;;;;;;;10.88;9.30;;;;;;;;;;516308;28;1563;-68
2023/03/02 01:02:28;;;;;;;10.82;9.13;;;;;;;;;;520107;28;1207;-68
2023/03/02 01:02:43;;;;;;;11.60;9.20;;;;;;;;;;519578;28;1228;-68
2023/03/02 01:02:59;;;;;;;11.43;9.13;;;;;;;;;;518475;28;1429;-68
2023/03/02 01:03:14;;;;;;;10.80;8.80;;;;;;;;;;517689;28;1661;-68
2023/03/02 01:03:29;;;;;;;11.23;8.90;;;;;;;;;;517039;28;1252;-68
2023/03/02 01:03:45;;;;;;;12.02;9.50;;;;;;;;;;515480;28;1179;-68
2023/03/02 01:04:00;;;;;;;11.33;9.50;;;;;;;;;;517726;28;1465;-68
2023/03/02 01:04:15;;;;;;;10.60;9.10;;;;;;;;;;519563;28;1458;-70
2023/03/02 01:04:40;;;;;;;11.10;9.45;;;;;;;;;;521686;28;1379;-68
2023/03/02 01:04:56;;;;;;;12.60;9.32;;;;;;;;;;521807;28;1102;-68
2023/03/02 01:05:11;;;;;;;11.30;8.98;;;;;;;;;;521111;28;1379;-68
2023/03/02 01:05:26;;;;;;;10.30;8.80;;;;;;;;;;521869;28;1234;-68
2023/03/02 01:05:42;;;;;;;10.50;8.67;;;;;;;;;;519410;28;1286;-68
2023/03/02 01:05:57;;;;;;;10.20;8.57;;;;;;;;;;522598;28;1254;-68
2023/03/02 01:06:15;;;;;;;9.73;8.70;;;;;;;;;;521522;28;1470;-68
2023/03/02 01:06:30;;;;;;;10.07;8.93;;;;;;;;;;521342;28;1385;-68
2023/03/02 01:06:46;;;;;;;11.25;8.98;;;;;;;;;;520740;28;1314;-68
2023/03/02 01:07:05;;;;;;;11.07;8.93;;;;;;;;;;521151;28;1231;-68
2023/03/02 01:07:23;;;;;;;10.90;9.27;;;;;;;;;;519494;28;1242;-68
2023/03/02 01:07:39;;;;;;;11.13;9.00;;;;;;;;;;519620;28;1341;-68
2023/03/02 01:07:54;;;;;;;12.00;9.10;;;;;;;;;;519762;28;1347;-68
2023/03/02 01:08:10;;;;;;;11.07;8.90;;;;;;;;;;521618;28;1227;-68
2023/03/02 01:08:25;;;;;;;11.57;8.70;;;;;;;;;;518242;28;1369;-68
2023/03/02 01:08:40;;;;;;;11.93;8.80;;;;;;;;;;519221;28;1333;-68
2023/03/02 01:08:56;;;;;;;10.85;8.95;;;;;;;;;;518931;28;1210;-68
2023/03/02 01:09:11;;;;;;;11.23;9.23;;;;;;;;;;522643;28;1360;-68
2023/03/02 01:09:27;;;;;;;10.60;9.05;;;;;;;;;;520498;28;1618;-68
2023/03/02 01:09:43;;;;;;;10.03;8.67;;;;;;;;;;518853;28;1187;-68
2023/03/02 01:09:59;;;;;;;11.38;8.90;;;;;;;;;;519241;28;1282;-68
2023/03/02 01:10:15;;;;;;;11.77;8.97;;;;;;;;;;519522;28;1212;-69
2023/03/02 01:10:31;;;;;;;11.05;8.68;;;;;;;;;;524000;28;1205;-68
2023/03/02 01:10:47;;;;;;;12.15;9.02;;;;;;;;;;521432;28;1269;-68
2023/03/02 01:11:02;;;;;;;12.60;9.20;;;;;;;;;;518278;28;1987;-68
2023/03/02 01:11:20;;;;;;;11.02;9.07;;;;;;;;;;519700;28;1370;-68
2023/03/02 01:11:35;;;;;;;10.90;9.27;;;;;;;;;;519634;28;1231;-68
2023/03/02 01:11:51;;;;;;;10.73;9.33;;;;;;;;;;517722;28;1232;-68
2023/03/02 01:12:09;;;;;;;10.95;9.05;;;;;;;;;;516318;28;1217;-68
2023/03/02 01:12:24;;;;;;;11.80;9.05;;;;;;;;;;517530;28;1280;-68
2023/03/02 01:12:40;;;;;;;12.00;9.43;;;;;;;;;;515585;28;1226;-68
2023/03/02 01:12:55;;;;;;;11.13;9.50;;;;;;;;;;518940;28;1402;-68
2023/03/02 01:13:10;;;;;;;11.80;9.57;;;;;;;;;;520250;28;1378;-68
2023/03/02 01:13:26;;;;;;;11.60;9.37;;;;;;;;;;517377;28;1259;-68
2023/03/02 01:13:41;;;;;;;10.75;9.20;;;;;;;;;;514678;28;1347;-68
2023/03/02 01:13:56;;;;;;;10.87;9.20;;;;;;;;;;516001;28;1216;-68
2023/03/02 01:14:12;;;;;;;10.93;9.07;;;;;;;;;;517034;28;1166;-68
2023/03/02 01:14:27;;;;;;;11.20;9.35;;;;;;;;;;513772;28;1271;-68
2023/03/02 01:14:46;;;;;;;11.10;9.60;;;;;;;;;;516469;28;1229;-68
2023/03/02 01:15:02;;;;;;;11.23;9.40;;;;;;;;;;516383;28;1231;-68
2023/03/02 01:15:17;;;;;;;11.77;9.32;;;;;;;;;;520562;28;1613;-68
2023/03/02 01:15:33;;;;;;;11.75;9.30;;;;;;;;;;520986;28;1439;-68
2023/03/02 01:15:58;;;;;;;11.27;9.07;;;;;;;;;;519743;28;1414;-68
2023/03/02 01:16:14;;;;;;;12.23;9.20;;;;;;;;;;520755;28;1907;-69
2023/03/02 01:16:32;;;;;;;11.30;9.23;;;;;;;;;;518204;28;1210;-68
2023/03/02 01:16:47;;;;;;;10.55;8.90;;;;;;;;;;520076;28;1353;-68
2023/03/02 01:17:04;;;;;;;11.27;9.30;;;;;;;;;;521189;28;1312;-68
2023/03/02 01:17:21;;;;;;;11.27;9.38;;;;;;;;;;521502;28;1444;-68
2023/03/02 01:17:38;;;;;;;11.50;9.20;;;;;;;;;;522913;28;1468;-68
2023/03/02 01:17:53;;;;;;;11.25;9.10;;;;;;;;;;521077;28;1483;-68
2023/03/02 01:18:09;;;;;;;10.47;8.80;;;;;;;;;;521117;28;1305;-68
2023/03/02 01:18:24;;;;;;;10.77;8.97;;;;;;;;;;522649;28;1370;-68
2023/03/02 01:18:40;;;;;;;10.93;9.10;;;;;;;;;;519287;28;1319;-68
2023/03/02 01:18:55;;;;;;;11.48;9.20;;;;;;;;;;515346;28;1587;-68
2023/03/02 01:19:11;;;;;;;11.40;9.23;;;;;;;;;;513107;28;1466;-68
2023/03/02 01:19:26;;;;;;;11.27;9.17;;;;;;;;;;513142;28;1331;-68
2023/03/02 01:19:42;;;;;;;12.00;8.70;;;;;;;;;;515350;28;1323;-68
2023/03/02 01:19:57;;;;;;;10.77;8.60;;;;;;;;;;517359;28;1206;-68
2023/03/02 01:20:14;;;;;;;10.53;8.70;;;;;;;;;;516573;28;1216;-69
2023/03/02 01:20:29;;;;;;;10.65;8.57;;;;;;;;;;516167;28;1179;-68
2023/03/02 01:20:44;;;;;;;11.48;9.00;;;;;;;;;;517868;28;1609;-68
2023/03/02 01:21:05;;;;;;;11.83;9.23;;;;;;;;;;519100;28;1352;-68
2023/03/02 01:21:20;;;;;;;10.93;9.43;;;;;;;;;;521325;28;1180;-68
2023/03/02 01:21:36;;;;;;;11.23;9.60;;;;;;;;;;520603;28;1234;-68
2023/03/02 01:21:51;;;;;;;11.83;9.53;;;;;;;;;;520476;28;1459;-70
2023/03/02 01:22:07;;;;;;;11.93;9.55;;;;;;;;;;517166;28;1256;-69
2023/03/02 01:22:23;;;;;;;11.35;9.48;;;;;;;;;;517032;28;1371;-69
2023/03/02 01:22:38;;;;;;;11.15;9.20;;;;;;;;;;517226;28;1352;-69
2023/03/02 01:22:54;;;;;;;11.07;9.27;;;;;;;;;;517780;28;1099;-69
2023/03/02 01:23:09;;;;;;;11.25;9.45;;;;;;;;;;519315;28;1220;-69
2023/03/02 01:23:24;;;;;;;11.07;9.47;;;;;;;;;;517150;28;1340;-69
2023/03/02 01:23:40;;;;;;;10.50;9.37;;;;;;;;;;519149;28;1211;-69
2023/03/02 01:23:56;;;;;;;10.90;9.50;;;;;;;;;;518470;28;1147;-69
2023/03/02 01:24:11;;;;;;;11.45;9.70;;;;;;;;;;517437;28;1299;-69
2023/03/02 01:24:27;;;;;;;11.73;9.70;;;;;;;;;;519690;28;1327;-69
2023/03/02 01:24:42;;;;;;;11.90;9.70;;;;;;;;;;516198;28;1232;-69
2023/03/02 01:24:57;;;;;;;12.70;9.53;;;;;;;;;;518751;28;1279;-69
2023/03/02 01:25:13;;;;;;;12.47;9.40;;;;;;;;;;515608;28;1208;-70
2023/03/02 01:25:28;;;;;;;11.25;9.38;;;;;;;;;;514303;28;1256;-69
2023/03/02 01:25:43;;;;;;;11.43;9.40;;;;;;;;;;516758;28;1239;-69
2023/03/02 01:25:59;;;;;;;12.02;9.20;;;;;;;;;;517580;28;1369;-69
2023/03/02 01:26:14;;;;;;;11.60;8.97;;;;;;;;;;518482;28;1586;-69
2023/03/02 01:26:29;;;;;;;10.97;8.70;;;;;;;;;;520110;28;1285;-69
2023/03/02 01:26:45;;;;;;;11.27;8.88;;;;;;;;;;516303;28;1331;-69
2023/03/02 01:27:00;;;;;;;11.63;9.13;;;;;;;;;;518066;28;1381;-69
2023/03/02 01:27:15;;;;;;;11.60;9.40;;;;;;;;;;516317;28;1389;-69
2023/03/02 01:27:31;;;;;;;11.40;9.70;;;;;;;;;;518533;28;1399;-69
2023/03/02 01:27:46;;;;;;;11.10;9.50;;;;;;;;;;520109;28;1269;-69
2023/03/02 01:28:02;;;;;;;10.88;9.15;;;;;;;;;;517102;28;1233;-69
2023/03/02 01:28:17;;;;;;;11.27;9.27;;;;;;;;;;517395;28;1358;-69
2023/03/02 01:28:32;;;;;;;11.97;9.53;;;;;;;;;;519821;28;1236;-69
2023/03/02 01:28:48;;;;;;;11.70;9.45;;;;;;;;;;514276;28;1373;-69
2023/03/02 01:29:03;;;;;;;10.60;9.07;;;;;;;;;;513735;28;1503;-69
2023/03/02 01:29:19;;;;;;;11.25;9.25;;;;;;;;;;516596;28;1228;-69
2023/03/02 01:29:35;;;;;;;12.03;9.63;;;;;;;;;;518292;28;1224;-69
2023/03/02 01:29:50;;;;;;;11.65;9.50;;;;;;;;;;520694;28;1244;-69
2023/03/02 01:30:06;;;;;;;12.32;9.65;;;;;;;;;;518782;28;1194;-69
2023/03/02 01:30:22;;;;;;;13.02;9.70;;;;;;;;;;519592;28;1285;-69
2023/03/02 01:30:37;;;;;;;12.47;9.70;;;;;;;;;;518999;28;1327;-68
2023/03/02 01:30:53;;;;;;;12.32;9.80;;;;;;;;;;518097;28;1174;-68
2023/03/02 01:31:08;;;;;;;12.13;9.70;;;;;;;;;;517767;28;1989;-68
2023/03/02 01:31:25;;;;;;;11.73;9.70;;;;;;;;;;519026;28;1497;-68
2023/03/02 01:31:41;;;;;;;11.40;9.60;;;;;;;;;;520014;28;1382;-68
2023/03/02 01:31:56;;;;;;;10.93;9.43;;;;;;;;;;518336;28;1592;-68
2023/03/02 01:32:11;;;;;;;11.23;9.27;;;;;;;;;;515635;28;1213;-68
2023/03/02 01:32:27;;;;;;;11.50;9.50;;;;;;;;;;516611;28;1175;-69
2023/03/02 01:32:42;;;;;;;11.50;9.83;;;;;;;;;;518073;28;1227;-69
2023/03/02 01:32:57;;;;;;;12.60;10.20;;;;;;;;;;519064;28;1406;-69
2023/03/02 01:33:13;;;;;;;12.20;10.13;;;;;;;;;;518412;28;1341;-68
2023/03/02 01:33:28;;;;;;;11.45;9.60;;;;;;;;;;516576;28;1218;-69
2023/03/02 01:33:43;;;;;;;11.87;9.20;;;;;;;;;;518793;28;1227;-68
2023/03/02 01:33:59;;;;;;;12.00;9.40;;;;;;;;;;519226;28;1325;-69
2023/03/02 01:34:14;;;;;;;11.82;9.52;;;;;;;;;;518874;28;1465;-68
2023/03/02 01:34:29;;;;;;;11.67;9.40;;;;;;;;;;517192;28;1233;-69
2023/03/02 01:34:45;;;;;;;11.83;9.77;;;;;;;;;;519623;28;1204;-69
2023/03/02 01:35:00;;;;;;;11.75;9.85;;;;;;;;;;518335;28;1187;-68
2023/03/02 01:35:15;;;;;;;11.80;9.90;;;;;;;;;;520223;28;1222;-69
2023/03/02 01:35:31;;;;;;;12.20;9.90;;;;;;;;;;521103;28;1493;-69
2023/03/02 01:35:46;;;;;;;11.73;9.65;;;;;;;;;;521452;28;1149;-68
2023/03/02 01:36:02;;;;;;;11.07;9.27;;;;;;;;;;517578;28;1331;-68
2023/03/02 01:36:17;;;;;;;11.18;9.30;;;;;;;;;;515506;28;1351;-69
2023/03/02 01:36:33;;;;;;;11.98;9.68;;;;;;;;;;517016;28;1106;-69
2023/03/02 01:36:48;;;;;;;12.83;10.00;;;;;;;;;;517545;28;1213;-69
2023/03/02 01:37:04;;;;;;;12.60;9.80;;;;;;;;;;519382;28;1370;-68
2023/03/02 01:37:22;;;;;;;12.13;9.57;;;;;;;;;;519407;28;1266;-68
2023/03/02 01:37:37;;;;;;;11.07;9.32;;;;;;;;;;519107;28;1191;-69
2023/03/02 01:37:52;;;;;;;10.90;9.10;;;;;;;;;;520707;28;1165;-69